Time;durP1;ratioP1;P1;durP2;ratioP2;P2;SDS_P1;SDS_P2;PMS_P1;PMS_P2;Temp;Humidity;BMP_temperature;BMP_pressure;BME280_temperature;BME280_humidity;BME280_pressure;Samples;Min_cycle;Max_cycle;Signal;HPM_P1;HPM_P2
2023/11/17 00:01:46;;;;;;;3.95;3.30;;;;;;;;;;5036002;28;20032;-68
2023/11/17 00:04:13;;;;;;;5.15;2.22;;;;;;;;;;5036124;28;20436;-68
2023/11/17 00:06:38;;;;;;;5.22;3.10;;;;;;;;;;5027447;28;20036;-68
2023/11/17 00:09:05;;;;;;;4.90;3.38;;;;;;;;;;5016382;28;20026;-68
2023/11/17 00:11:31;;;;;;;7.25;3.67;;;;;;;;;;5007796;28;20040;-68
2023/11/17 00:13:57;;;;;;;4.53;3.35;;;;;;;;;;4995512;28;20081;-68
2023/11/17 00:16:23;;;;;;;6.20;3.35;;;;;;;;;;5001082;28;20514;-68
2023/11/17 00:18:48;;;;;;;4.93;3.47;;;;;;;;;;4996369;28;20037;-68
2023/11/17 00:21:15;;;;;;;3.85;3.28;;;;;;;;;;5011346;28;20518;-68
2023/11/17 00:23:40;;;;;;;4.28;3.22;;;;;;;;;;5016376;28;20475;-68
2023/11/17 00:26:06;;;;;;;3.95;3.10;;;;;;;;;;5015697;28;20025;-69
2023/11/17 00:28:40;;;;;;;4.53;3.90;;;;;;;;;;5021301;28;20107;-69
2023/11/17 00:31:09;;;;;;;6.28;3.63;;;;;;;;;;5035530;28;20025;-68
2023/11/17 00:33:37;;;;;;;5.03;3.65;;;;;;;;;;5035129;28;20486;-68
2023/11/17 00:36:04;;;;;;;5.78;3.28;;;;;;;;;;5034266;28;20026;-68
2023/11/17 00:38:31;;;;;;;4.47;3.75;;;;;;;;;;5034621;28;20017;-69
2023/11/17 00:40:59;;;;;;;4.22;3.30;;;;;;;;;;5033853;28;20104;-68
2023/11/17 00:43:25;;;;;;;4.38;3.40;;;;;;;;;;5034821;28;20096;-68
2023/11/17 00:45:52;;;;;;;4.45;3.83;;;;;;;;;;5035839;28;20025;-68
2023/11/17 00:48:17;;;;;;;4.20;3.50;;;;;;;;;;5035295;28;20049;-68
2023/11/17 00:50:43;;;;;;;7.50;3.72;;;;;;;;;;5035575;28;20053;-68
2023/11/17 00:53:11;;;;;;;6.95;3.08;;;;;;;;;;5035000;28;20398;-69
2023/11/17 00:55:36;;;;;;;4.47;3.53;;;;;;;;;;5034813;28;20021;-68
2023/11/17 00:58:03;;;;;;;5.50;3.97;;;;;;;;;;5035240;28;20092;-68
2023/11/17 01:00:28;;;;;;;5.50;3.53;;;;;;;;;;5023065;28;20084;-68
2023/11/17 01:02:53;;;;;;;6.20;3.75;;;;;;;;;;4996009;28;20030;-68
2023/11/17 01:05:19;;;;;;;5.30;3.03;;;;;;;;;;4995782;28;20026;-68
2023/11/17 01:07:44;;;;;;;4.10;3.25;;;;;;;;;;5001330;28;20514;-68
2023/11/17 01:10:09;;;;;;;5.45;3.65;;;;;;;;;;5015493;28;20022;-68
2023/11/17 01:12:35;;;;;;;5.88;4.38;;;;;;;;;;5015416;28;20475;-68
2023/11/17 01:15:00;;;;;;;5.70;3.75;;;;;;;;;;5019392;28;20017;-68
2023/11/17 01:17:26;;;;;;;6.50;4.30;;;;;;;;;;5035143;28;20017;-68
2023/11/17 01:19:51;;;;;;;4.75;3.50;;;;;;;;;;5034024;28;20474;-68
2023/11/17 01:22:16;;;;;;;3.97;3.45;;;;;;;;;;5035282;28;20030;-69
2023/11/17 01:24:42;;;;;;;6.00;2.72;;;;;;;;;;5034577;28;20453;-69
2023/11/17 01:27:07;;;;;;;4.43;3.42;;;;;;;;;;5034782;28;20025;-68
2023/11/17 01:29:32;;;;;;;5.47;3.90;;;;;;;;;;5034731;28;20025;-68
2023/11/17 01:31:57;;;;;;;6.05;3.67;;;;;;;;;;5021957;28;20026;-68
2023/11/17 01:34:23;;;;;;;6.28;3.80;;;;;;;;;;5014362;28;20022;-68
2023/11/17 01:36:48;;;;;;;5.43;2.72;;;;;;;;;;5014621;28;20368;-68
2023/11/17 01:39:14;;;;;;;5.40;3.50;;;;;;;;;;5030138;28;20095;-68
2023/11/17 01:41:40;;;;;;;4.53;3.50;;;;;;;;;;5014821;28;20030;-68
2023/11/17 01:44:06;;;;;;;5.18;2.90;;;;;;;;;;5021719;28;20120;-68
2023/11/17 01:46:31;;;;;;;6.82;3.35;;;;;;;;;;5034076;28;20486;-68
2023/11/17 01:48:56;;;;;;;5.25;3.42;;;;;;;;;;5033474;28;20021;-68
2023/11/17 01:51:22;;;;;;;4.13;2.33;;;;;;;;;;5033787;28;20414;-68
2023/11/17 01:53:47;;;;;;;3.85;2.58;;;;;;;;;;5033402;28;20380;-68
2023/11/17 01:56:14;;;;;;;4.65;3.25;;;;;;;;;;5047810;22;20048;-71
2023/11/17 01:58:39;;;;;;;3.67;2.78;;;;;;;;;;5033899;28;20021;-70
2023/11/17 02:01:07;;;;;;;3.42;2.58;;;;;;;;;;5033834;28;20025;-70
2023/11/17 02:03:33;;;;;;;4.15;2.55;;;;;;;;;;5032270;28;20388;-70
2023/11/17 02:06:07;;;;;;;4.18;3.47;;;;;;;;;;5046965;28;20028;-70
2023/11/17 02:08:50;;;;;;;7.60;3.70;;;;;;;;;;5054082;28;20466;-70
2023/11/17 02:11:32;;;;;;;4.43;3.58;;;;;;;;;;5036209;28;20036;-70
2023/11/17 02:14:05;;;;;;;4.93;3.50;;;;;;;;;;5053500;28;20032;-71
2023/11/17 02:16:35;;;;;;;4.90;2.55;;;;;;;;;;5052283;28;20021;-71
2023/11/17 02:19:04;;;;;;;4.53;3.35;;;;;;;;;;5052232;28;20482;-71
2023/11/17 02:21:31;;;;;;;5.65;2.92;;;;;;;;;;5031811;28;20029;-70
2023/11/17 02:24:01;;;;;;;4.18;3.13;;;;;;;;;;5048924;28;20017;-71
2023/11/17 02:26:42;;;;;;;3.97;3.58;;;;;;;;;;5031942;28;20026;-71
2023/11/17 02:29:29;;;;;;;4.63;3.15;;;;;;;;;;5032343;28;20049;-70
2023/11/17 02:31:57;;;;;;;5.40;4.10;;;;;;;;;;5033824;28;20070;-70
2023/11/17 02:34:25;;;;;;;3.92;2.35;;;;;;;;;;5041776;28;20398;-71
2023/11/17 02:36:51;;;;;;;4.22;3.15;;;;;;;;;;5051725;28;20017;-71
2023/11/17 02:39:27;;;;;;;3.72;3.10;;;;;;;;;;5051686;28;20032;-71
2023/11/17 02:41:57;;;;;;;6.35;3.13;;;;;;;;;;5052788;28;20025;-71
2023/11/17 02:44:28;;;;;;;6.47;3.67;;;;;;;;;;5051153;28;20028;-71
2023/11/17 02:47:00;;;;;;;4.65;3.25;;;;;;;;;;5048796;28;20406;-71
2023/11/17 02:49:34;;;;;;;5.07;3.55;;;;;;;;;;5051826;28;20025;-71
2023/11/17 02:52:03;;;;;;;6.00;3.25;;;;;;;;;;5051707;28;20052;-71
2023/11/17 02:54:29;;;;;;;6.00;3.50;;;;;;;;;;5051976;28;20037;-71
2023/11/17 03:00:16;;;;;;;4.00;3.00;;;;;;;;;;5051167;28;20036;-70
2023/11/17 03:02:41;;;;;;;5.57;3.22;;;;;;;;;;5050106;28;20028;-70
2023/11/17 03:05:13;;;;;;;3.63;2.72;;;;;;;;;;5050850;28;20025;-71
2023/11/17 03:07:39;;;;;;;5.22;4.13;;;;;;;;;;5046264;28;20083;-70
2023/11/17 03:10:05;;;;;;;5.45;2.88;;;;;;;;;;5051546;28;20135;-70
2023/11/17 03:12:31;;;;;;;4.90;3.33;;;;;;;;;;5045680;28;20033;-71
2023/11/17 03:14:56;;;;;;;4.60;3.03;;;;;;;;;;5039204;28;20038;-71
2023/11/17 03:17:22;;;;;;;5.25;3.17;;;;;;;;;;5052597;28;20107;-70
2023/11/17 03:19:48;;;;;;;7.47;4.22;;;;;;;;;;5052474;28;20044;-70
2023/11/17 03:22:13;;;;;;;8.57;3.92;;;;;;;;;;5051724;28;20056;-71
2023/11/17 03:24:41;;;;;;;4.30;3.47;;;;;;;;;;5051861;28;20478;-70
2023/11/17 03:27:06;;;;;;;5.22;3.33;;;;;;;;;;5052771;28;20024;-70
2023/11/17 03:29:32;;;;;;;6.03;3.70;;;;;;;;;;5034928;28;20025;-71
2023/11/17 03:31:57;;;;;;;4.80;3.35;;;;;;;;;;5052314;28;20021;-71
2023/11/17 03:34:30;;;;;;;6.22;4.78;;;;;;;;;;5052008;28;20025;-70
2023/11/17 03:37:04;;;;;;;5.15;3.67;;;;;;;;;;5052262;28;20099;-70
2023/11/17 03:39:31;;;;;;;6.70;3.60;;;;;;;;;;5052922;28;20020;-71
2023/11/17 03:41:57;;;;;;;5.72;3.72;;;;;;;;;;5051268;28;20024;-70
2023/11/17 03:44:27;;;;;;;5.57;3.50;;;;;;;;;;5052391;28;20029;-71
2023/11/17 03:46:59;;;;;;;6.53;3.95;;;;;;;;;;5050921;28;20028;-71
2023/11/17 03:49:25;;;;;;;7.72;3.47;;;;;;;;;;5032014;28;20029;-71
2023/11/17 03:51:52;;;;;;;5.30;3.30;;;;;;;;;;5018100;28;20478;-70
2023/11/17 03:54:21;;;;;;;4.25;2.85;;;;;;;;;;5047803;28;20021;-71
2023/11/17 03:56:47;;;;;;;4.05;3.42;;;;;;;;;;5031970;28;20546;-70
2023/11/17 03:59:16;;;;;;;5.43;3.90;;;;;;;;;;5043223;28;20021;-71
2023/11/17 04:01:51;;;;;;;6.18;3.65;;;;;;;;;;5051818;28;20052;-70
2023/11/17 04:04:17;;;;;;;4.75;3.60;;;;;;;;;;5050852;28;20029;-70
2023/11/17 04:06:49;;;;;;;5.07;3.65;;;;;;;;;;5050909;28;20124;-70
2023/11/17 04:09:16;;;;;;;5.05;3.28;;;;;;;;;;5052428;28;20057;-71
2023/11/17 04:11:45;;;;;;;6.32;2.92;;;;;;;;;;5051203;28;20428;-71
2023/11/17 04:14:10;;;;;;;5.07;3.80;;;;;;;;;;5050771;28;20025;-71
2023/11/17 04:16:37;;;;;;;4.97;3.58;;;;;;;;;;5050117;28;20029;-70
2023/11/17 04:19:03;;;;;;;6.88;3.42;;;;;;;;;;5071146;28;20167;-71
2023/11/17 04:21:28;;;;;;;5.57;3.65;;;;;;;;;;5055370;28;20510;-70
2023/11/17 04:23:54;;;;;;;7.90;3.28;;;;;;;;;;5053178;28;20029;-71
2023/11/17 04:26:19;;;;;;;4.88;3.97;;;;;;;;;;5037054;28;20028;-71
2023/11/17 04:28:46;;;;;;;3.72;2.50;;;;;;;;;;5055534;28;20389;-71
2023/11/17 04:31:12;;;;;;;5.28;3.35;;;;;;;;;;5055743;28;20067;-71
2023/11/17 04:33:37;;;;;;;6.15;4.22;;;;;;;;;;5055573;28;20025;-71
2023/11/17 04:36:03;;;;;;;5.00;2.50;;;;;;;;;;5055066;28;20420;-70
2023/11/17 04:38:29;;;;;;;5.50;3.85;;;;;;;;;;5055809;28;20029;-70
2023/11/17 04:40:55;;;;;;;8.45;3.22;;;;;;;;;;5054702;28;20402;-71
2023/11/17 04:43:20;;;;;;;5.57;3.85;;;;;;;;;;5055754;28;20031;-70
2023/11/17 04:45:47;;;;;;;7.05;4.28;;;;;;;;;;5055399;28;20517;-71
2023/11/17 04:48:13;;;;;;;7.60;4.38;;;;;;;;;;5053663;28;20107;-71
2023/11/17 04:50:39;;;;;;;6.22;4.20;;;;;;;;;;5054208;28;20048;-71
2023/11/17 04:53:05;;;;;;;4.38;2.50;;;;;;;;;;5055803;28;20461;-70
2023/11/17 04:55:31;;;;;;;6.63;4.05;;;;;;;;;;5053908;28;20037;-71
2023/11/17 04:57:56;;;;;;;4.72;3.38;;;;;;;;;;5055737;28;20090;-70
2023/11/17 05:00:23;;;;;;;6.35;3.80;;;;;;;;;;5055157;28;20025;-71
2023/11/17 05:02:49;;;;;;;5.35;2.80;;;;;;;;;;5054861;28;20386;-71
2023/11/17 05:05:15;;;;;;;6.65;4.15;;;;;;;;;;5053897;28;20025;-71
2023/11/17 05:07:44;;;;;;;5.35;3.95;;;;;;;;;;5055282;28;20027;-70
2023/11/17 05:10:19;;;;;;;7.30;4.72;;;;;;;;;;5054677;28;20028;-70
2023/11/17 05:12:46;;;;;;;12.75;6.18;;;;;;;;;;5053975;28;20037;-70
2023/11/17 05:15:12;;;;;;;44.60;17.42;;;;;;;;;;5053166;28;20028;-70
2023/11/17 05:17:45;;;;;;;10.18;5.63;;;;;;;;;;5053610;28;20482;-70
2023/11/17 05:20:12;;;;;;;7.22;4.43;;;;;;;;;;5055142;28;20033;-71
2023/11/17 05:22:39;;;;;;;10.98;6.32;;;;;;;;;;5055289;28;20530;-70
2023/11/17 05:25:06;;;;;;;11.63;5.47;;;;;;;;;;5054614;28;20029;-71
2023/11/17 05:27:32;;;;;;;8.48;5.10;;;;;;;;;;5054236;28;20032;-71
2023/11/17 05:29:58;;;;;;;7.25;4.82;;;;;;;;;;5053365;28;20017;-71
2023/11/17 05:32:25;;;;;;;5.85;4.65;;;;;;;;;;5069991;28;20020;-71
2023/11/17 05:34:50;;;;;;;8.38;4.30;;;;;;;;;;5054411;28;20025;-71
2023/11/17 05:37:18;;;;;;;6.60;3.95;;;;;;;;;;5054755;28;20033;-70
2023/11/17 05:39:45;;;;;;;6.78;3.20;;;;;;;;;;5069293;28;20029;-71
2023/11/17 05:42:11;;;;;;;6.18;4.00;;;;;;;;;;5053386;28;20021;-71
2023/11/17 05:44:36;;;;;;;5.13;3.70;;;;;;;;;;5054233;28;20021;-71
2023/11/17 05:47:02;;;;;;;5.68;3.63;;;;;;;;;;5054410;28;20033;-70
2023/11/17 05:49:28;;;;;;;8.98;4.25;;;;;;;;;;5053725;28;20112;-71
2023/11/17 05:51:54;;;;;;;7.47;3.92;;;;;;;;;;5054178;28;20025;-71
2023/11/17 05:54:19;;;;;;;6.45;3.40;;;;;;;;;;5054003;28;20029;-70
2023/11/17 05:56:45;;;;;;;7.78;4.25;;;;;;;;;;5052836;28;20543;-71
2023/11/17 05:59:11;;;;;;;7.38;4.68;;;;;;;;;;5049257;28;20029;-71
2023/11/17 06:01:37;;;;;;;6.40;4.43;;;;;;;;;;5042254;28;20057;-70
2023/11/17 06:04:02;;;;;;;6.85;4.20;;;;;;;;;;5040344;28;20026;-71
2023/11/17 06:06:28;;;;;;;5.65;3.47;;;;;;;;;;5038655;28;20087;-70
2023/11/17 06:08:53;;;;;;;6.60;4.20;;;;;;;;;;5045692;28;20094;-71
2023/11/17 06:11:25;;;;;;;5.95;3.08;;;;;;;;;;5053762;28;20429;-71
2023/11/17 06:13:50;;;;;;;4.85;4.13;;;;;;;;;;5052458;28;20481;-71
2023/11/17 06:16:16;;;;;;;4.90;3.67;;;;;;;;;;5041553;28;20104;-71
2023/11/17 06:18:42;;;;;;;6.70;4.10;;;;;;;;;;5033871;28;20053;-71
2023/11/17 06:21:07;;;;;;;6.85;4.43;;;;;;;;;;5033558;28;20056;-71
2023/11/17 06:23:33;;;;;;;5.25;4.60;;;;;;;;;;5041168;28;20049;-71
2023/11/17 06:25:58;;;;;;;7.82;5.68;;;;;;;;;;5053366;28;20078;-71
2023/11/17 06:28:23;;;;;;;12.02;6.47;;;;;;;;;;5051233;28;20028;-71
2023/11/17 06:30:50;;;;;;;5.88;4.22;;;;;;;;;;5053448;28;20016;-71
2023/11/17 06:33:16;;;;;;;5.65;4.07;;;;;;;;;;5052226;28;20029;-71
2023/11/17 06:35:41;;;;;;;8.00;4.38;;;;;;;;;;5053224;28;20496;-70
2023/11/17 06:38:08;;;;;;;7.22;4.78;;;;;;;;;;5053374;28;20021;-71
2023/11/17 06:40:33;;;;;;;11.45;4.57;;;;;;;;;;5052473;28;20024;-71
2023/11/17 06:42:59;;;;;;;7.68;4.72;;;;;;;;;;5053131;28;20033;-71
2023/11/17 06:45:24;;;;;;;8.02;4.88;;;;;;;;;;5053282;28;20474;-71
2023/11/17 06:47:51;;;;;;;10.98;7.25;;;;;;;;;;5053042;28;20028;-70
2023/11/17 06:50:17;;;;;;;13.57;8.13;;;;;;;;;;5052479;28;20025;-71
2023/11/17 06:52:44;;;;;;;10.73;6.45;;;;;;;;;;5051591;28;20111;-71
2023/11/17 06:55:09;;;;;;;17.77;11.32;;;;;;;;;;5051310;28;20029;-71
2023/11/17 06:57:35;;;;;;;17.85;8.55;;;;;;;;;;5052793;28;20107;-71
2023/11/17 07:00:00;;;;;;;12.05;7.88;;;;;;;;;;5051326;28;20474;-71
2023/11/17 07:02:28;;;;;;;13.43;7.57;;;;;;;;;;5049071;28;20425;-71
2023/11/17 07:04:54;;;;;;;14.07;7.43;;;;;;;;;;5030794;28;20384;-71
2023/11/17 07:07:19;;;;;;;14.95;8.35;;;;;;;;;;5032583;28;20040;-71
2023/11/17 07:09:44;;;;;;;12.05;6.50;;;;;;;;;;5037787;28;20422;-70
2023/11/17 07:12:10;;;;;;;8.85;7.38;;;;;;;;;;5052473;28;20115;-71
2023/11/17 07:14:35;;;;;;;10.90;7.57;;;;;;;;;;5050869;28;20463;-71
2023/11/17 07:17:04;;;;;;;11.00;6.75;;;;;;;;;;5052270;28;20017;-71
2023/11/17 07:19:32;;;;;;;13.75;6.43;;;;;;;;;;5052635;28;20482;-71
2023/11/17 07:21:58;;;;;;;11.30;7.50;;;;;;;;;;5046626;28;20387;-71
2023/11/17 07:24:23;;;;;;;7.18;5.22;;;;;;;;;;5045161;28;20025;-71
2023/11/17 07:26:49;;;;;;;8.57;5.13;;;;;;;;;;5047931;28;20028;-71
2023/11/17 07:29:15;;;;;;;11.30;5.00;;;;;;;;;;5052250;28;20056;-71
2023/11/17 07:31:45;;;;;;;9.65;5.45;;;;;;;;;;5050818;28;20482;-71
2023/11/17 07:34:18;;;;;;;13.00;6.60;;;;;;;;;;5050631;28;20475;-71
2023/11/17 07:36:44;;;;;;;11.43;5.72;;;;;;;;;;5051073;28;20032;-71
2023/11/17 07:39:12;;;;;;;10.68;5.78;;;;;;;;;;5051101;28;20033;-71
2023/11/17 07:41:38;;;;;;;9.88;5.25;;;;;;;;;;5051161;28;20028;-71
2023/11/17 07:44:03;;;;;;;8.25;4.75;;;;;;;;;;5050355;28;20021;-71
2023/11/17 07:46:29;;;;;;;7.28;4.68;;;;;;;;;;5051742;28;20036;-71
2023/11/17 07:48:55;;;;;;;8.60;5.80;;;;;;;;;;5050439;28;20033;-71
2023/11/17 07:51:21;;;;;;;9.10;4.93;;;;;;;;;;5051090;28;20033;-71
2023/11/17 07:53:46;;;;;;;15.63;7.18;;;;;;;;;;5055077;28;20044;-71
2023/11/17 07:56:12;;;;;;;12.60;7.13;;;;;;;;;;5069411;22;20118;-68
2023/11/17 07:58:37;;;;;;;15.15;8.98;;;;;;;;;;5056645;28;20029;-68
2023/11/17 08:01:08;;;;;;;25.35;14.63;;;;;;;;;;5055179;28;20033;-68
2023/11/17 08:03:34;;;;;;;16.75;11.15;;;;;;;;;;5056382;28;20635;-68
2023/11/17 08:06:00;;;;;;;13.80;9.40;;;;;;;;;;5056521;28;20029;-68
2023/11/17 08:08:25;;;;;;;13.55;7.60;;;;;;;;;;5054417;28;20049;-68
2023/11/17 08:10:51;;;;;;;10.30;7.20;;;;;;;;;;5049296;28;20036;-69
2023/11/17 08:13:16;;;;;;;9.77;5.65;;;;;;;;;;5038985;28;20075;-68
2023/11/17 08:15:44;;;;;;;10.70;6.72;;;;;;;;;;5050799;28;20108;-68
2023/11/17 08:18:10;;;;;;;11.35;6.20;;;;;;;;;;5036277;28;20079;-69
2023/11/17 08:20:40;;;;;;;10.90;6.15;;;;;;;;;;5034341;28;20498;-68
2023/11/17 08:23:06;;;;;;;10.43;5.95;;;;;;;;;;5036169;28;20037;-68
2023/11/17 08:25:32;;;;;;;7.32;5.45;;;;;;;;;;5034845;28;20026;-68
2023/11/17 08:27:57;;;;;;;8.73;5.43;;;;;;;;;;5036290;28;20036;-68
2023/11/17 08:30:23;;;;;;;8.07;5.32;;;;;;;;;;5035831;28;20034;-69
2023/11/17 08:32:48;;;;;;;8.13;5.60;;;;;;;;;;5034897;28;20025;-69
2023/11/17 08:35:14;;;;;;;8.80;6.38;;;;;;;;;;5035635;28;20497;-69
2023/11/17 08:37:39;;;;;;;12.25;4.85;;;;;;;;;;5036163;28;20398;-68
2023/11/17 08:40:08;;;;;;;7.20;4.72;;;;;;;;;;5034589;28;20029;-68
2023/11/17 08:42:37;;;;;;;9.68;5.40;;;;;;;;;;5035873;28;20402;-68
2023/11/17 08:45:09;;;;;;;10.02;6.07;;;;;;;;;;5034076;28;20075;-68
2023/11/17 08:47:43;;;;;;;11.20;5.47;;;;;;;;;;5034406;28;20028;-68
2023/11/17 08:50:10;;;;;;;11.02;5.82;;;;;;;;;;5034794;28;20029;-69
2023/11/17 08:52:37;;;;;;;9.45;5.47;;;;;;;;;;5036071;28;20124;-68
2023/11/17 08:55:09;;;;;;;7.78;5.00;;;;;;;;;;5035825;28;20048;-69
2023/11/17 08:57:35;;;;;;;8.95;5.85;;;;;;;;;;5033720;28;20029;-69
2023/11/17 09:00:01;;;;;;;11.10;6.07;;;;;;;;;;5035869;28;20032;-69
2023/11/17 09:02:26;;;;;;;9.38;5.53;;;;;;;;;;5035629;28;20026;-69
2023/11/17 09:04:52;;;;;;;8.45;5.15;;;;;;;;;;5035140;28;20471;-69
2023/11/17 09:07:22;;;;;;;10.15;5.07;;;;;;;;;;5034763;28;20128;-68
2023/11/17 09:09:47;;;;;;;11.50;5.35;;;;;;;;;;5035538;28;20021;-68
2023/11/17 09:12:15;;;;;;;9.98;5.22;;;;;;;;;;5035464;28;20493;-68
2023/11/17 09:14:40;;;;;;;7.60;5.07;;;;;;;;;;5035675;28;20025;-68
2023/11/17 09:17:06;;;;;;;11.82;6.30;;;;;;;;;;5035138;28;20071;-68
2023/11/17 09:19:36;;;;;;;9.38;5.72;;;;;;;;;;5035430;28;20022;-68
2023/11/17 09:22:01;;;;;;;12.35;5.20;;;;;;;;;;5035536;28;20025;-68
2023/11/17 09:24:27;;;;;;;11.32;6.20;;;;;;;;;;5034876;28;20028;-68
2023/11/17 09:26:53;;;;;;;12.40;5.22;;;;;;;;;;5033773;28;20033;-68
2023/11/17 09:29:19;;;;;;;8.05;4.55;;;;;;;;;;5034891;28;20372;-69
2023/11/17 09:31:44;;;;;;;10.25;6.03;;;;;;;;;;5034992;28;20079;-68
2023/11/17 09:34:09;;;;;;;11.57;6.03;;;;;;;;;;5034294;28;20053;-68
2023/11/17 09:36:36;;;;;;;9.25;5.20;;;;;;;;;;5034707;28;20490;-68
2023/11/17 09:39:02;;;;;;;9.75;5.20;;;;;;;;;;5035106;28;20026;-68
2023/11/17 09:41:28;;;;;;;9.95;5.22;;;;;;;;;;5033898;28;20021;-68
2023/11/17 09:43:57;;;;;;;9.43;5.20;;;;;;;;;;5033064;28;20052;-68
2023/11/17 09:46:27;;;;;;;8.02;4.40;;;;;;;;;;5033746;28;20096;-69
2023/11/17 09:48:59;;;;;;;7.95;5.15;;;;;;;;;;5035170;28;20108;-68
2023/11/17 09:51:24;;;;;;;;;;;;;;;;;;5035103;28;20025;-68
2023/11/17 09:53:50;;;;;;;7.73;6.03;;;;;;;;;;5033406;28;20412;-68
2023/11/17 09:56:16;;;;;;;7.18;4.88;;;;;;;;;;5034147;28;20068;-68
2023/11/17 09:58:44;;;;;;;8.27;5.05;;;;;;;;;;5031616;28;20203;-68
2023/11/17 10:01:10;;;;;;;8.63;4.72;;;;;;;;;;5018101;28;20042;-68
2023/11/17 10:03:36;;;;;;;28.30;10.50;;;;;;;;;;5031392;28;20067;-69
2023/11/17 10:06:04;;;;;;;28.20;10.15;;;;;;;;;;5033292;28;20029;-68
2023/11/17 10:08:30;;;;;;;43.97;15.60;;;;;;;;;;5034559;28;20033;-68
2023/11/17 10:10:55;;;;;;;16.48;7.25;;;;;;;;;;5039022;28;20067;-68
2023/11/17 10:13:25;;;;;;;37.70;15.00;;;;;;;;;;5020771;28;20071;-68
2023/11/17 10:15:51;;;;;;;37.40;14.70;;;;;;;;;;5035206;28;20086;-68
2023/11/17 10:18:20;;;;;;;36.03;14.88;;;;;;;;;;5034530;28;20100;-68
2023/11/17 10:20:46;;;;;;;18.55;7.88;;;;;;;;;;5032829;28;20021;-69
2023/11/17 10:23:12;;;;;;;12.98;6.93;;;;;;;;;;5033908;28;20029;-71
2023/11/17 10:25:38;;;;;;;10.38;6.45;;;;;;;;;;5033258;28;20475;-69
2023/11/17 10:28:04;;;;;;;9.02;5.15;;;;;;;;;;5033201;28;20364;-70
2023/11/17 10:30:33;;;;;;;10.00;5.00;;;;;;;;;;5033950;28;20096;-69
2023/11/17 10:33:28;;;;;;;6.45;4.32;;;;;;;;;;5034379;28;20018;-69
2023/11/17 10:36:04;;;;;;;7.00;4.72;;;;;;;;;;5034055;28;20029;-69
2023/11/17 10:38:34;;;;;;;7.32;4.63;;;;;;;;;;5034418;28;20021;-69
2023/11/17 10:41:30;;;;;;;5.55;3.03;;;;;;;;;;5034354;28;20406;-70
2023/11/17 10:43:59;;;;;;;4.13;3.38;;;;;;;;;;5033068;28;20021;-69
2023/11/17 10:46:27;;;;;;;3.78;2.38;;;;;;;;;;5034066;28;20386;-69
2023/11/17 10:48:58;;;;;;;4.10;2.97;;;;;;;;;;5033400;28;20056;-69
2023/11/17 10:51:24;;;;;;;6.07;3.47;;;;;;;;;;5033850;28;20032;-70
2023/11/17 10:54:09;;;;;;;3.67;2.63;;;;;;;;;;5032830;28;20025;-70
2023/11/17 10:56:36;;;;;;;5.55;3.13;;;;;;;;;;5032283;28;20030;-69
2023/11/17 10:59:02;;;;;;;4.35;2.92;;;;;;;;;;5032854;28;20033;-69
2023/11/17 11:01:31;;;;;;;6.85;2.35;;;;;;;;;;5033933;28;20399;-69
2023/11/17 11:03:57;;;;;;;3.50;2.80;;;;;;;;;;5032226;28;20088;-70
2023/11/17 11:06:25;;;;;;;3.30;2.95;;;;;;;;;;5033650;28;20033;-69
2023/11/17 11:08:56;;;;;;;14.45;7.00;;;;;;;;;;5033456;28;20383;-69
2023/11/17 11:11:25;;;;;;;11.57;5.80;;;;;;;;;;5033595;28;20032;-69
2023/11/17 11:13:54;;;;;;;3.13;2.03;;;;;;;;;;5033484;28;20470;-70
2023/11/17 11:16:19;;;;;;;14.88;7.45;;;;;;;;;;5032809;28;20034;-69
2023/11/17 11:18:46;;;;;;;10.85;5.43;;;;;;;;;;5033574;28;20024;-70
2023/11/17 11:21:16;;;;;;;11.02;5.35;;;;;;;;;;5032263;28;20022;-70
2023/11/17 11:23:43;;;;;;;7.45;4.82;;;;;;;;;;5032939;28;20566;-69
2023/11/17 11:26:09;;;;;;;7.15;3.17;;;;;;;;;;5032512;28;20395;-70
2023/11/17 11:28:34;;;;;;;14.98;7.13;;;;;;;;;;5036336;28;20033;-69
2023/11/17 11:31:05;;;;;;;5.65;3.25;;;;;;;;;;5036450;28;20036;-69
2023/11/17 11:33:31;;;;;;;6.50;3.85;;;;;;;;;;5037328;28;20017;-70
2023/11/17 11:35:58;;;;;;;12.45;5.32;;;;;;;;;;5052668;28;20478;-70
2023/11/17 11:38:24;;;;;;;10.55;4.80;;;;;;;;;;5036084;28;20018;-69
2023/11/17 11:40:52;;;;;;;2.53;2.25;;;;;;;;;;5035408;28;20441;-69
2023/11/17 11:43:19;;;;;;;5.40;4.30;;;;;;;;;;5037108;28;20017;-69
2023/11/17 11:45:44;;;;;;;8.98;3.28;;;;;;;;;;5035775;28;20116;-69
2023/11/17 11:48:10;;;;;;;5.95;3.25;;;;;;;;;;5037230;28;20040;-69
2023/11/17 11:50:40;;;;;;;11.18;4.75;;;;;;;;;;5035281;28;20029;-69
2023/11/17 11:53:19;;;;;;;7.03;3.67;;;;;;;;;;5035627;28;20025;-69
2023/11/17 11:55:44;;;;;;;3.15;2.65;;;;;;;;;;5035758;28;20014;-70
2023/11/17 11:58:10;;;;;;;6.95;3.85;;;;;;;;;;5036913;28;20026;-69
2023/11/17 12:00:35;;;;;;;3.83;2.58;;;;;;;;;;5037204;28;20022;-70
2023/11/17 12:03:02;;;;;;;8.10;4.07;;;;;;;;;;5035307;28;20021;-69
2023/11/17 12:05:33;;;;;;;6.10;4.38;;;;;;;;;;5035439;28;20025;-69
2023/11/17 12:08:03;;;;;;;9.90;5.18;;;;;;;;;;5035472;28;20161;-69
2023/11/17 12:10:41;;;;;;;9.70;4.13;;;;;;;;;;5036680;28;20021;-69
2023/11/17 12:13:07;;;;;;;7.43;3.30;;;;;;;;;;5035514;28;20029;-69
2023/11/17 12:15:32;;;;;;;7.63;3.97;;;;;;;;;;5034707;28;20108;-69
2023/11/17 12:17:58;;;;;;;8.95;3.78;;;;;;;;;;5036528;28;20033;-69
2023/11/17 12:20:24;;;;;;;7.93;3.65;;;;;;;;;;5035341;28;20036;-69
2023/11/17 12:23:01;;;;;;;4.20;2.55;;;;;;;;;;5034675;28;20025;-70
2023/11/17 12:25:30;;;;;;;4.70;3.28;;;;;;;;;;5035126;28;20650;-70
2023/11/17 12:27:57;;;;;;;3.95;2.95;;;;;;;;;;5035134;28;20091;-69
2023/11/17 12:30:22;;;;;;;3.50;2.63;;;;;;;;;;5036221;28;20032;-69
2023/11/17 12:32:51;;;;;;;4.65;3.17;;;;;;;;;;5035111;28;20429;-69
2023/11/17 12:35:20;;;;;;;5.93;4.90;;;;;;;;;;5036238;28;20117;-70
2023/11/17 12:37:47;;;;;;;8.27;6.80;;;;;;;;;;5033644;28;20036;-70
2023/11/17 12:40:14;;;;;;;6.47;3.95;;;;;;;;;;5034855;28;20029;-69
2023/11/17 12:42:39;;;;;;;12.82;6.82;;;;;;;;;;5036356;28;20104;-69
2023/11/17 12:45:06;;;;;;;11.02;4.75;;;;;;;;;;5036143;28;20052;-69
2023/11/17 12:47:31;;;;;;;14.35;6.00;;;;;;;;;;5034185;28;20038;-69
2023/11/17 12:49:57;;;;;;;5.97;4.13;;;;;;;;;;5036136;28;20139;-69
2023/11/17 12:52:23;;;;;;;5.68;3.70;;;;;;;;;;5036038;28;20029;-69
2023/11/17 12:55:08;;;;;;;5.25;3.38;;;;;;;;;;5035596;28;20029;-69
2023/11/17 12:57:37;;;;;;;6.43;3.72;;;;;;;;;;5034466;28;20041;-69
2023/11/17 13:00:12;;;;;;;4.97;3.75;;;;;;;;;;5033884;28;20510;-69
2023/11/17 13:02:40;;;;;;;5.18;3.00;;;;;;;;;;5034761;28;20100;-69
2023/11/17 13:05:07;;;;;;;7.63;4.35;;;;;;;;;;5034409;28;20091;-69
2023/11/17 13:07:32;;;;;;;7.25;3.25;;;;;;;;;;5034453;28;20037;-69
2023/11/17 13:09:57;;;;;;;3.65;2.90;;;;;;;;;;5034233;28;20471;-69
2023/11/17 13:12:23;;;;;;;5.95;3.38;;;;;;;;;;5035003;28;20029;-69
2023/11/17 13:14:51;;;;;;;5.13;3.58;;;;;;;;;;5035221;28;20115;-69
2023/11/17 13:17:18;;;;;;;7.55;3.10;;;;;;;;;;5034388;28;20025;-70
2023/11/17 13:19:43;;;;;;;5.82;3.65;;;;;;;;;;5034103;28;20098;-70
2023/11/17 13:22:09;;;;;;;11.02;4.40;;;;;;;;;;5033671;28;20037;-69
2023/11/17 13:24:34;;;;;;;12.15;5.93;;;;;;;;;;5034034;28;20076;-69
2023/11/17 13:27:02;;;;;;;14.50;6.55;;;;;;;;;;5035119;28;20128;-69
2023/11/17 13:29:28;;;;;;;14.30;5.40;;;;;;;;;;5024648;28;20122;-69
2023/11/17 13:31:58;;;;;;;12.57;4.57;;;;;;;;;;5029627;28;20371;-69
2023/11/17 13:34:26;;;;;;;11.13;5.85;;;;;;;;;;5030737;28;20029;-70
2023/11/17 13:36:51;;;;;;;7.40;3.72;;;;;;;;;;5032816;28;20025;-69
2023/11/17 13:39:19;;;;;;;9.25;4.93;;;;;;;;;;5019843;28;20044;-70
2023/11/17 13:41:47;;;;;;;13.50;6.30;;;;;;;;;;5014575;28;20025;-69
2023/11/17 13:44:30;;;;;;;10.00;4.88;;;;;;;;;;5015058;28;20075;-70
2023/11/17 13:47:00;;;;;;;4.28;3.42;;;;;;;;;;5014550;28;20483;-69
2023/11/17 13:49:25;;;;;;;4.10;2.65;;;;;;;;;;5015139;28;20438;-70
2023/11/17 13:52:01;;;;;;;4.15;2.80;;;;;;;;;;5014616;28;20025;-70
2023/11/17 13:54:30;;;;;;;6.55;2.97;;;;;;;;;;5013765;28;20434;-70
2023/11/17 13:56:59;;;;;;;12.15;5.72;;;;;;;;;;5012663;28;20084;-70
2023/11/17 13:59:28;;;;;;;6.20;3.53;;;;;;;;;;5014595;28;20030;-70
2023/11/17 14:02:00;;;;;;;7.40;4.15;;;;;;;;;;5013345;28;20029;-70
2023/11/17 14:04:29;;;;;;;29.13;11.90;;;;;;;;;;5013542;28;20032;-70
2023/11/17 14:06:59;;;;;;;72.78;31.23;;;;;;;;;;5014619;28;20025;-70
2023/11/17 14:09:26;;;;;;;8.88;5.72;;;;;;;;;;5014112;28;20061;-69
2023/11/17 14:11:53;;;;;;;18.42;9.20;;;;;;;;;;5013522;28;20022;-70
2023/11/17 14:14:19;;;;;;;20.17;11.50;;;;;;;;;;5014402;28;20034;-70
2023/11/17 14:16:48;;;;;;;55.08;26.00;;;;;;;;;;5013256;28;20169;-70
2023/11/17 14:19:18;;;;;;;24.15;14.05;;;;;;;;;;5013842;28;20022;-70
2023/11/17 14:21:47;;;;;;;35.83;20.30;;;;;;;;;;5014029;28;20109;-70
2023/11/17 14:24:17;;;;;;;14.70;11.48;;;;;;;;;;5013361;28;20029;-69
2023/11/17 14:27:03;;;;;;;16.35;8.07;;;;;;;;;;5014556;28;20056;-70
2023/11/17 14:29:33;;;;;;;7.97;5.82;;;;;;;;;;5014316;28;20034;-70
2023/11/17 14:31:58;;;;;;;8.52;6.43;;;;;;;;;;5013058;28;20033;-70
2023/11/17 14:34:26;;;;;;;10.50;5.72;;;;;;;;;;5013851;28;20034;-70
2023/11/17 14:36:54;;;;;;;5.53;3.78;;;;;;;;;;5014088;28;20541;-70
2023/11/17 14:39:30;;;;;;;12.18;5.05;;;;;;;;;;5014028;28;20030;-70
2023/11/17 14:41:56;;;;;;;13.75;5.38;;;;;;;;;;5013349;28;20045;-70
2023/11/17 14:44:26;;;;;;;6.70;4.00;;;;;;;;;;5012363;28;20033;-70